Time;durP1;ratioP1;P1;durP2;ratioP2;P2;SDS_P1;SDS_P2;PMS_P1;PMS_P2;Temp;Humidity;BMP_temperature;BMP_pressure;BME280_temperature;BME280_humidity;BME280_pressure;Samples;Min_cycle;Max_cycle;Signal;HPM_P1;HPM_P2
2022/05/02 00:02:17;;;;;;;6.40;4.35;;;;;;;16.74;63.84;101722.94;5072028;28;20366;-81
2022/05/02 00:04:43;;;;;;;7.00;4.50;;;;;;;16.66;63.90;101723.53;5071457;28;20114;-81
2022/05/02 00:07:09;;;;;;;6.22;3.97;;;;;;;16.76;64.18;101727.44;5071946;28;20440;-81
2022/05/02 00:09:34;;;;;;;6.50;4.40;;;;;;;16.77;63.91;101731.00;5071936;28;20525;-81
2022/05/02 00:12:00;;;;;;;7.18;4.07;;;;;;;16.74;63.68;101726.47;5070795;28;20568;-81
2022/05/02 00:14:26;;;;;;;5.75;4.25;;;;;;;16.75;63.74;101728.28;5071917;28;20024;-82
2022/05/02 00:16:51;;;;;;;5.05;4.10;;;;;;;16.75;63.85;101732.69;5071525;28;20048;-80
2022/05/02 00:19:17;;;;;;;5.88;3.92;;;;;;;16.75;63.84;101727.41;5071388;28;20017;-81
2022/05/02 00:21:43;;;;;;;4.65;4.13;;;;;;;16.73;63.92;101724.69;5071862;28;20120;-81
2022/05/02 00:24:09;;;;;;;5.80;4.25;;;;;;;16.74;63.44;101736.13;5071414;28;20516;-82
2022/05/02 00:26:35;;;;;;;4.72;4.05;;;;;;;16.58;63.93;101703.81;5071411;28;20033;-81
2022/05/02 00:29:01;;;;;;;7.57;4.57;;;;;;;16.71;63.48;101726.34;5071636;28;20028;-80
2022/05/02 00:31:26;;;;;;;5.10;4.13;;;;;;;16.67;63.57;101714.75;5070966;28;20035;-81
2022/05/02 00:33:52;;;;;;;8.20;4.25;;;;;;;16.71;63.58;101725.47;5071491;28;20085;-81
2022/05/02 00:36:18;;;;;;;5.93;4.07;;;;;;;16.73;63.67;101726.44;5071187;28;20029;-81
2022/05/02 00:38:43;;;;;;;4.53;3.78;;;;;;;16.69;63.76;101725.38;5071498;28;20410;-81
2022/05/02 00:41:09;;;;;;;6.35;3.95;;;;;;;16.67;63.45;101714.75;5070928;28;20040;-81
2022/05/02 00:43:35;;;;;;;5.38;4.00;;;;;;;16.70;63.78;101727.19;5070023;28;20020;-80
2022/05/02 00:46:01;;;;;;;5.55;4.22;;;;;;;16.62;63.72;101708.38;5069823;28;20058;-80
2022/05/02 00:48:28;;;;;;;4.68;3.88;;;;;;;16.63;63.64;101714.56;5070772;28;20755;-81
2022/05/02 00:50:54;;;;;;;4.43;3.60;;;;;;;16.68;63.75;101724.50;5069474;28;20493;-81
2022/05/02 00:53:22;;;;;;;6.10;4.18;;;;;;;16.63;63.62;101712.81;5070847;28;20040;-81
2022/05/02 00:55:48;;;;;;;5.35;3.95;;;;;;;16.56;63.33;101700.19;5069829;28;20033;-81
2022/05/02 00:58:15;;;;;;;4.85;4.00;;;;;;;16.66;63.49;101728.78;5071231;28;20043;-81
2022/05/02 01:00:41;;;;;;;6.38;4.10;;;;;;;16.59;63.87;101709.97;5070043;28;20024;-81
2022/05/02 01:03:10;;;;;;;6.25;4.07;;;;;;;16.58;63.19;101716.09;5071189;28;20097;-81
2022/05/02 01:07:08;;;;;;;5.95;4.00;;;;;;;16.66;63.60;101720.00;5070480;28;20032;-81
2022/05/02 01:08:28;;;;;;;4.53;3.65;;;;;;;16.58;63.85;101706.44;5070877;28;20089;-82
2022/05/02 01:10:55;;;;;;;5.00;4.03;;;;;;;16.67;63.87;101703.31;5068710;28;20203;-82
2022/05/02 01:13:37;;;;;;;6.78;3.92;;;;;;;16.64;63.36;101711.09;5070999;28;20097;-82
2022/05/02 01:16:09;;;;;;;4.95;3.75;;;;;;;16.67;63.23;101700.69;5068686;28;20055;-82
2022/05/02 01:18:35;;;;;;;7.75;4.50;;;;;;;16.56;63.19;101688.75;5070112;28;20063;-82
2022/05/02 01:21:01;;;;;;;;;;;;;;;16.68;63.41;101700.75;5053157;28;20572;-82
2022/05/02 01:23:26;;;;;;;5.95;4.25;;;;;;;16.57;63.34;101694.06;5085993;28;20003;-81
2022/05/02 01:25:52;;;;;;;5.60;3.92;;;;;;;16.54;63.40;101704.50;5070479;28;20037;-82
2022/05/02 01:28:17;;;;;;;4.20;3.60;;;;;;;16.38;63.85;101676.56;5070571;28;20486;-82
2022/05/02 01:30:43;;;;;;;6.03;4.05;;;;;;;16.45;63.54;101697.09;5070851;28;20094;-82
2022/05/02 01:33:09;;;;;;;7.90;3.88;;;;;;;16.45;64.04;101689.19;5070573;28;20505;-82
2022/05/02 01:35:35;;;;;;;;;;;;;;;16.60;63.63;101710.06;5066645;28;20040;-82
2022/05/02 01:38:00;;;;;;;8.05;4.20;;;;;;;16.54;63.64;101706.25;5052771;28;19913;-82
2022/05/02 01:40:26;;;;;;;5.95;4.45;;;;;;;16.56;63.70;101718.66;5050884;28;20029;-81
2022/05/02 01:42:52;;;;;;;5.07;3.95;;;;;;;16.52;63.68;101714.09;5064406;28;20041;-81
2022/05/02 01:45:17;;;;;;;4.63;3.85;;;;;;;16.41;63.65;101687.22;5070271;28;20482;-82
2022/05/02 01:47:43;;;;;;;5.20;3.83;;;;;;;16.52;63.79;101705.28;5070547;28;20420;-82
2022/05/02 01:50:09;;;;;;;5.93;3.95;;;;;;;16.54;63.46;101712.41;5069179;28;20025;-82
2022/05/02 01:52:34;;;;;;;5.30;3.97;;;;;;;16.49;63.58;101700.78;5070478;28;20425;-82
2022/05/02 01:55:00;;;;;;;5.55;4.00;;;;;;;16.51;63.68;101716.63;5069197;28;20020;-82
2022/05/02 01:57:25;;;;;;;4.22;3.55;;;;;;;16.51;63.86;101714.94;5070135;28;20032;-81
2022/05/02 01:59:51;;;;;;;4.97;3.83;;;;;;;16.47;64.01;101702.44;5070706;28;20409;-82
2022/05/02 02:02:17;;;;;;;4.43;3.42;;;;;;;16.52;64.25;101713.19;5069624;28;20067;-82
2022/05/02 02:07:27;;;;;;;6.93;3.63;;;;;;;16.49;63.86;101701.66;5060580;28;20042;-82
2022/05/02 02:09:52;;;;;;;4.68;3.90;;;;;;;16.47;64.04;101692.78;5069987;28;20040;-81
2022/05/02 02:12:18;;;;;;;5.90;4.07;;;;;;;16.47;63.87;101684.88;5070310;28;20040;-81
2022/05/02 02:14:44;;;;;;;4.38;3.42;;;;;;;16.45;63.83;101689.19;5070847;28;20055;-82
2022/05/02 02:17:09;;;;;;;5.68;3.83;;;;;;;16.46;63.66;101682.16;5070274;28;20421;-81
2022/05/02 02:19:35;;;;;;;7.53;3.90;;;;;;;16.47;63.76;101691.91;5070482;28;20409;-81
2022/05/02 02:22:16;;;;;;;5.50;3.88;;;;;;;16.40;63.76;101680.19;5072267;28;20036;-82
2022/05/02 02:24:48;;;;;;;4.22;3.40;;;;;;;16.42;64.20;101680.22;5073213;28;20017;-82
2022/05/02 02:27:14;;;;;;;4.75;3.65;;;;;;;16.44;64.02;101691.75;5072751;28;20036;-82
2022/05/02 02:29:39;;;;;;;5.45;3.67;;;;;;;16.44;63.99;101691.75;5073022;28;20028;-82
2022/05/02 02:32:05;;;;;;;5.65;3.83;;;;;;;16.04;64.24;101622.34;5073950;28;20045;-82
2022/05/02 02:34:31;;;;;;;4.78;3.55;;;;;;;16.31;64.05;101676.22;5073973;28;20425;-82
2022/05/02 02:36:57;;;;;;;5.43;3.40;;;;;;;16.43;63.82;101697.88;5074054;28;20032;-82
2022/05/02 02:39:23;;;;;;;4.68;3.78;;;;;;;16.29;64.22;101669.13;5074117;28;20413;-82
2022/05/02 02:41:49;;;;;;;4.38;3.40;;;;;;;16.36;64.00;101685.22;5072859;28;20071;-82
2022/05/02 02:44:15;;;;;;;5.63;3.25;;;;;;;16.37;64.20;101690.56;5073769;28;20040;-83
2022/05/02 02:46:40;;;;;;;4.35;3.50;;;;;;;16.04;63.98;101632.88;5072448;28;20029;-82
2022/05/02 02:49:06;;;;;;;5.22;3.90;;;;;;;16.04;64.03;101629.31;5074132;28;20024;-82
2022/05/02 02:51:31;;;;;;;5.53;3.63;;;;;;;16.14;63.83;101649.09;5074028;28;20039;-82
2022/05/02 02:53:57;;;;;;;5.15;3.47;;;;;;;16.38;64.37;101689.75;5073985;28;20028;-82
2022/05/02 02:56:23;;;;;;;4.07;3.40;;;;;;;16.22;64.11;101668.78;5073915;28;20489;-82
2022/05/02 02:58:48;;;;;;;5.57;3.78;;;;;;;16.34;63.82;101678.97;5074045;28;20512;-81
2022/05/02 03:01:14;;;;;;;4.03;3.55;;;;;;;16.28;64.31;101685.78;5072972;28;20043;-82
2022/05/02 03:03:40;;;;;;;4.20;3.60;;;;;;;16.21;64.17;101664.34;5072619;28;20032;-82
2022/05/02 03:06:06;;;;;;;4.90;3.60;;;;;;;16.32;64.33;101693.81;5072831;28;20040;-81
2022/05/02 03:08:42;;;;;;;4.57;3.88;;;;;;;16.30;64.05;101691.13;5055850;28;20024;-81
2022/05/02 03:11:08;;;;;;;7.38;3.80;;;;;;;16.27;64.28;101683.97;5056614;28;20037;-81
2022/05/02 03:13:36;;;;;;;4.95;3.83;;;;;;;16.29;64.26;101682.28;5073568;28;20032;-82
2022/05/02 03:16:03;;;;;;;5.13;3.60;;;;;;;16.30;64.87;101675.31;5073057;28;20465;-82
2022/05/02 03:18:29;;;;;;;4.25;3.40;;;;;;;16.27;64.24;101672.53;5073298;28;20048;-82
2022/05/02 03:20:54;;;;;;;5.10;3.58;;;;;;;16.26;64.12;101681.28;5071577;28;20125;-81
2022/05/02 03:23:21;;;;;;;5.07;3.78;;;;;;;16.25;64.31;101674.19;5072290;28;20078;-81
2022/05/02 03:25:47;;;;;;;5.35;3.65;;;;;;;16.12;64.92;101656.91;5073322;28;20020;-82
2022/05/02 03:28:13;;;;;;;5.55;3.55;;;;;;;16.18;64.71;101666.84;5071958;28;20112;-81
2022/05/02 03:30:38;;;;;;;6.28;3.88;;;;;;;16.21;64.59;101667.91;5072896;28;20502;-81
2022/05/02 03:33:05;;;;;;;5.25;3.50;;;;;;;16.07;64.83;101646.19;5072202;28;20093;-82
2022/05/02 03:35:31;;;;;;;5.10;3.42;;;;;;;16.11;65.06;101649.88;5072922;28;20048;-82
2022/05/02 03:37:57;;;;;;;4.65;3.58;;;;;;;16.25;64.56;101661.00;5072545;28;20422;-82
2022/05/02 03:40:23;;;;;;;5.90;3.85;;;;;;;16.21;64.14;101661.69;5072894;28;20040;-82
2022/05/02 03:42:48;;;;;;;4.45;3.38;;;;;;;16.20;65.11;101662.56;5073005;28;20029;-82
2022/05/02 03:45:14;;;;;;;4.15;3.40;;;;;;;16.10;65.04;101648.03;5072698;28;20105;-82
2022/05/02 03:50:05;;;;;;;3.80;3.33;;;;;;;16.03;65.27;101640.69;5071916;28;20085;-82
2022/05/02 03:52:31;;;;;;;4.35;3.40;;;;;;;16.00;64.74;101636.19;5072752;28;20383;-82
2022/05/02 03:54:56;;;;;;;4.93;3.40;;;;;;;16.04;64.84;101640.78;5071828;28;20035;-82
2022/05/02 03:57:22;;;;;;;5.78;3.58;;;;;;;16.08;64.97;101644.44;5072588;28;20489;-82
2022/05/02 03:59:48;;;;;;;5.85;3.40;;;;;;;16.13;65.25;101658.75;5072595;28;20028;-82
2022/05/02 04:02:13;;;;;;;4.78;3.92;;;;;;;15.94;65.12;101629.72;5072443;28;20035;-82
2022/05/02 04:04:39;;;;;;;5.63;3.38;;;;;;;16.13;65.18;101649.91;5072275;28;20029;-82
2022/05/02 04:07:05;;;;;;;4.60;3.60;;;;;;;16.04;64.96;101631.94;5071290;28;20505;-82
2022/05/02 04:09:31;;;;;;;4.38;3.85;;;;;;;16.04;65.42;101630.25;5072212;28;20051;-81
2022/05/02 04:11:56;;;;;;;5.32;3.70;;;;;;;16.05;64.84;101623.22;5071020;28;20059;-82
2022/05/02 04:14:23;;;;;;;4.10;3.20;;;;;;;16.08;65.51;101628.63;5072613;28;20111;-82
2022/05/02 04:16:49;;;;;;;;;;;;;;;16.16;64.77;101628.97;5054985;28;20563;-82
2022/05/02 04:19:16;;;;;;;4.88;3.63;;;;;;;16.06;64.57;101636.47;5072454;28;19995;-82
2022/05/02 04:21:42;;;;;;;;;;;;;;;16.11;65.01;101634.06;5072690;28;20066;-82
2022/05/02 04:24:07;;;;;;;5.07;3.72;;;;;;;16.07;64.87;101635.63;5072076;28;19955;-82
2022/05/02 04:26:34;;;;;;;5.70;3.67;;;;;;;16.07;65.64;101640.00;5081550;28;20023;-82
2022/05/02 04:29:00;;;;;;;5.38;3.72;;;;;;;16.03;65.87;101632.81;5092447;28;20028;-81
2022/05/02 04:31:25;;;;;;;5.50;3.90;;;;;;;16.06;64.74;101640.81;5092608;28;20503;-82
2022/05/02 04:33:51;;;;;;;3.80;3.47;;;;;;;16.07;64.67;101638.28;5092235;28;20079;-81
2022/05/02 04:36:17;;;;;;;3.88;3.53;;;;;;;15.92;65.66;101607.69;5078469;28;20025;-81
2022/05/02 04:38:43;;;;;;;5.15;3.80;;;;;;;16.07;65.73;101643.53;5071690;28;20492;-81
2022/05/02 04:41:13;;;;;;;5.50;3.90;;;;;;;16.00;65.39;101633.56;5065354;28;20027;-82
2022/05/02 04:43:40;;;;;;;5.07;3.80;;;;;;;16.01;65.68;101632.72;5057590;28;20052;-81
2022/05/02 04:46:06;;;;;;;5.13;3.72;;;;;;;16.06;65.66;101635.56;5052415;28;20405;-82
2022/05/02 04:48:32;;;;;;;5.32;3.92;;;;;;;16.07;65.17;101637.38;5052204;28;20080;-81
2022/05/02 04:50:57;;;;;;;5.20;3.60;;;;;;;16.04;65.27;101639.84;5051899;28;20032;-82
2022/05/02 04:53:23;;;;;;;5.68;3.90;;;;;;;16.02;64.99;101642.44;5054491;28;20123;-82
2022/05/02 04:55:49;;;;;;;4.03;3.58;;;;;;;15.85;65.51;101617.97;5053844;28;20090;-82
2022/05/02 04:58:15;;;;;;;6.00;3.63;;;;;;;15.84;65.12;101616.13;5070505;28;20028;-83
2022/05/02 05:00:41;;;;;;;4.15;3.75;;;;;;;16.00;65.25;101646.75;5071658;28;20040;-83
2022/05/02 05:03:06;;;;;;;;;;;;;;;15.97;65.38;101640.41;5070692;28;20028;-83
2022/05/02 05:05:32;;;;;;;5.55;3.78;;;;;;;15.95;65.31;101636.81;5089634;28;19931;-83
2022/05/02 05:07:58;;;;;;;4.85;3.90;;;;;;;15.79;65.24;101611.47;5091050;28;20024;-83
2022/05/02 05:10:23;;;;;;;6.22;3.70;;;;;;;15.88;65.76;101633.91;5091304;28;20051;-82
2022/05/02 05:13:05;;;;;;;4.68;3.72;;;;;;;15.47;65.45;101569.66;5087478;28;20047;-82
2022/05/02 05:18:45;;;;;;;5.22;3.90;;;;;;;15.89;65.82;101640.06;5071421;28;20638;-82
2022/05/02 05:21:19;;;;;;;5.95;3.88;;;;;;;15.89;65.71;101642.69;5060549;28;20032;-83
2022/05/02 05:24:10;;;;;;;3.97;3.47;;;;;;;15.89;65.73;101634.78;5053240;28;20033;-82
2022/05/02 05:27:13;;;;;;;4.75;3.55;;;;;;;15.90;66.02;101646.25;5066746;28;20112;-82
2022/05/02 05:29:49;;;;;;;4.00;3.42;;;;;;;15.88;65.82;101641.78;5069016;28;20036;-83
2022/05/02 05:33:06;;;;;;;6.53;4.13;;;;;;;15.77;66.20;101621.03;5066877;28;20107;-82
2022/05/02 05:35:46;;;;;;;5.13;3.58;;;;;;;15.88;66.14;101648.81;5033575;28;20034;-82
2022/05/02 05:38:35;;;;;;;5.15;3.42;;;;;;;15.88;66.28;101654.06;5069753;28;20032;-82
2022/05/02 05:41:40;;;;;;;6.30;3.90;;;;;;;15.84;66.21;101645.13;5048523;28;20036;-83
2022/05/02 05:44:15;;;;;;;4.75;3.88;;;;;;;15.91;65.92;101653.31;5068383;28;20024;-82
2022/05/02 05:46:50;;;;;;;4.20;3.63;;;;;;;15.94;66.03;101659.63;5059070;28;20031;-82
2022/05/02 05:49:34;;;;;;;6.70;3.90;;;;;;;15.88;66.23;101661.97;5071068;28;20033;-82
2022/05/02 05:52:12;;;;;;;4.13;3.50;;;;;;;15.86;66.30;101667.16;5070494;28;20028;-82
2022/05/02 05:55:08;;;;;;;4.22;3.58;;;;;;;15.91;66.23;101667.38;5068869;28;20037;-82
2022/05/02 05:58:06;;;;;;;5.18;3.70;;;;;;;15.88;66.19;101667.25;5065520;28;20063;-81
2022/05/02 06:00:39;;;;;;;5.97;3.75;;;;;;;15.85;66.20;101670.63;5073359;28;20064;-82
2022/05/02 06:03:16;;;;;;;9.63;4.53;;;;;;;15.80;66.17;101669.50;5073047;28;20063;-82
2022/05/02 06:05:44;;;;;;;4.68;3.70;;;;;;;15.76;66.19;101661.38;5070434;28;20409;-84
2022/05/02 06:08:11;;;;;;;5.28;3.60;;;;;;;15.85;66.16;101667.06;5059326;28;20123;-82
2022/05/02 06:10:39;;;;;;;10.32;3.70;;;;;;;15.97;65.57;101679.94;5055652;28;20569;-85
2022/05/02 06:13:05;;;;;;;4.53;3.60;;;;;;;15.96;65.31;101678.13;5067523;28;20047;-84
2022/05/02 06:18:28;;;;;;;6.38;3.90;;;;;;;15.94;65.96;101674.50;5074330;28;20039;-83
2022/05/02 06:20:55;;;;;;;7.75;4.32;;;;;;;15.85;62.18;101677.63;5073052;28;20116;-88
2022/05/02 06:23:39;;;;;;;9.60;4.55;;;;;;;15.69;61.87;101657.53;5073015;28;20024;-92
2022/05/02 06:26:09;;;;;;;7.50;4.70;;;;;;;15.70;61.35;101675.13;5072892;28;20397;-91
2022/05/02 06:28:45;;;;;;;7.60;4.93;;;;;;;15.80;63.59;101671.25;5073081;28;20115;-86
2022/05/02 06:31:33;;;;;;;7.93;4.15;;;;;;;15.80;64.75;101664.25;5062116;28;20036;-86
2022/05/02 06:34:03;;;;;;;6.05;4.38;;;;;;;15.91;64.78;101679.66;5055949;28;20081;-85
2022/05/02 06:36:47;;;;;;;6.82;4.15;;;;;;;15.95;64.50;101678.97;5055966;28;20032;-84
2022/05/02 06:39:16;;;;;;;8.13;4.20;;;;;;;15.95;64.56;101682.50;5074165;28;20107;-85
2022/05/02 06:41:47;;;;;;;5.97;4.32;;;;;;;15.93;64.47;101676.25;5072685;28;20032;-85
2022/05/02 06:44:23;;;;;;;7.78;4.40;;;;;;;15.88;64.62;101678.66;5072081;28;20028;-83
2022/05/02 06:47:18;;;;;;;7.15;4.28;;;;;;;15.81;64.95;101675.66;5071237;28;20089;-86
2022/05/02 06:49:49;;;;;;;9.55;4.60;;;;;;;15.54;65.17;101633.13;5059718;28;20035;-84
2022/05/02 06:52:21;;;;;;;8.40;4.72;;;;;;;15.84;65.03;101681.09;5069509;28;20094;-86
2022/05/02 06:55:14;;;;;;;6.93;4.38;;;;;;;15.78;65.22;101678.16;5066552;28;20021;-86
2022/05/02 06:57:57;;;;;;;6.72;4.47;;;;;;;15.76;65.46;101685.09;5071757;28;20091;-85
2022/05/02 07:00:23;;;;;;;8.77;4.30;;;;;;;15.75;65.69;101678.94;5072613;28;20052;-85
2022/05/02 07:03:06;;;;;;;6.43;4.15;;;;;;;15.76;65.55;101677.19;5060412;28;20071;-83
2022/05/02 07:06:05;;;;;;;5.40;3.95;;;;;;;15.73;65.83;101684.97;5053904;28;20114;-84
2022/05/02 07:08:36;;;;;;;6.60;4.32;;;;;;;15.70;65.77;101685.66;5060408;28;20048;-86
2022/05/02 07:11:03;;;;;;;10.13;3.95;;;;;;;15.74;65.88;101686.75;5051807;28;20127;-86
2022/05/02 07:13:50;;;;;;;5.93;4.18;;;;;;;15.76;65.79;101685.09;5058338;28;20163;-84
2022/05/02 07:16:22;;;;;;;6.22;4.03;;;;;;;15.77;65.88;101681.63;5056091;28;20036;-85
2022/05/02 07:18:53;;;;;;;6.13;4.35;;;;;;;15.75;66.06;101684.19;5052911;28;20509;-85
2022/05/02 07:21:39;;;;;;;6.10;4.32;;;;;;;15.73;66.19;101683.22;5053315;28;20040;-85
2022/05/02 07:24:26;;;;;;;5.40;4.03;;;;;;;15.80;65.87;101677.41;5075245;28;20111;-85
2022/05/02 07:27:34;;;;;;;7.57;4.22;;;;;;;15.91;65.49;101685.81;5071498;28;20039;-82
2022/05/02 07:30:00;;;;;;;7.18;4.10;;;;;;;15.97;65.47;101679.94;5045207;28;20063;-82
2022/05/02 07:32:26;;;;;;;6.90;4.30;;;;;;;15.97;65.61;101677.31;5051456;28;20106;-82
2022/05/02 07:34:53;;;;;;;8.52;4.65;;;;;;;15.87;65.41;101663.72;5053307;28;20032;-83
2022/05/02 07:37:21;;;;;;;9.13;4.25;;;;;;;15.97;65.66;101682.56;5060364;28;20043;-82
2022/05/02 07:39:49;;;;;;;5.38;3.47;;;;;;;15.97;65.75;101685.19;5072613;28;20028;-83
2022/05/02 07:42:15;;;;;;;6.50;3.53;;;;;;;15.94;65.94;101683.34;5061370;28;20146;-84
2022/05/02 07:44:43;;;;;;;5.40;3.75;;;;;;;15.98;65.87;101687.00;5068401;28;20033;-83
2022/05/02 07:47:11;;;;;;;5.63;4.22;;;;;;;16.05;64.27;101679.47;5053087;28;20031;-86
2022/05/02 07:49:37;;;;;;;9.15;4.10;;;;;;;15.91;65.35;101677.91;5057490;28;20025;-85
2022/05/02 07:52:04;;;;;;;5.45;3.53;;;;;;;15.95;65.62;101681.59;5071173;28;20031;-84
2022/05/02 07:54:30;;;;;;;7.40;3.72;;;;;;;15.94;66.17;101680.69;5071418;28;20033;-83
2022/05/02 07:57:00;;;;;;;7.78;3.97;;;;;;;16.05;65.10;101684.72;5070822;28;20028;-83
2022/05/02 07:59:33;;;;;;;7.55;3.97;;;;;;;16.08;65.59;101679.59;5069463;28;20024;-84
2022/05/02 08:01:59;;;;;;;5.32;4.32;;;;;;;15.87;66.19;101654.88;5073015;28;20094;-83
2022/05/02 08:04:25;;;;;;;5.47;3.92;;;;;;;16.04;66.41;101682.00;5070756;28;20028;-84
2022/05/02 08:07:12;;;;;;;5.20;3.80;;;;;;;16.07;66.09;101684.81;5071411;28;20036;-83
2022/05/02 08:09:37;;;;;;;7.00;3.83;;;;;;;16.08;66.11;101683.97;5071332;28;20044;-84
2022/05/02 08:12:18;;;;;;;5.90;3.60;;;;;;;16.12;65.80;101683.28;5072142;28;20501;-84
2022/05/02 08:14:59;;;;;;;5.72;3.50;;;;;;;16.11;66.31;101677.91;5072702;28;20040;-83
2022/05/02 08:17:43;;;;;;;5.00;3.42;;;;;;;16.14;66.25;101676.34;5072175;28;20036;-83
2022/05/02 08:20:12;;;;;;;4.78;3.30;;;;;;;16.13;66.17;101661.38;5072176;28;20047;-84
2022/05/02 08:29:30;;;;;;;5.35;3.22;;;;;;;16.18;66.13;101661.59;5065544;28;20101;-84
2022/05/02 08:32:14;;;;;;;4.00;3.33;;;;;;;16.15;65.83;101649.16;5049372;28;20109;-84
2022/05/02 08:34:39;;;;;;;5.22;3.72;;;;;;;16.19;66.48;101656.38;5050090;28;20483;-84
2022/05/02 08:37:31;;;;;;;4.55;2.95;;;;;;;16.18;66.19;101648.41;5051525;28;20029;-83
2022/05/02 08:40:13;;;;;;;4.82;3.22;;;;;;;16.21;66.36;101636.28;5052218;28;20120;-84
2022/05/02 08:43:15;;;;;;;5.35;3.33;;;;;;;16.18;66.08;101646.66;5050737;28;20135;-84
2022/05/02 08:46:17;;;;;;;4.60;3.70;;;;;;;16.19;66.81;101644.91;5023896;28;20422;-84
2022/05/02 08:52:29;;;;;;;4.75;3.28;;;;;;;16.22;66.00;101635.44;5071435;28;20043;-84
2022/05/02 08:55:13;;;;;;;3.63;3.15;;;;;;;16.23;66.02;101631.06;5070517;28;20047;-84
2022/05/02 08:58:12;;;;;;;5.10;3.58;;;;;;;16.24;65.67;101624.97;5071504;28;20103;-85
2022/05/02 09:01:15;;;;;;;4.88;3.47;;;;;;;16.28;66.48;101624.28;5070416;28;20029;-84
2022/05/02 09:03:44;;;;;;;5.90;3.50;;;;;;;16.27;67.25;101622.44;5061866;28;20025;-83
2022/05/02 09:06:51;;;;;;;4.80;3.45;;;;;;;16.26;66.55;101613.66;5057851;28;20032;-84
2022/05/02 09:09:25;;;;;;;4.78;3.38;;;;;;;16.25;68.13;101614.47;5051002;28;20097;-84
2022/05/02 09:12:12;;;;;;;6.43;3.90;;;;;;;16.27;67.52;101610.16;5066732;28;20036;-84
2022/05/02 09:14:41;;;;;;;5.03;3.35;;;;;;;16.32;68.39;101607.75;5051183;28;20415;-84
2022/05/02 09:17:37;;;;;;;6.55;3.92;;;;;;;16.29;68.05;101597.06;5078884;28;20085;-84
2022/05/02 09:20:24;;;;;;;5.07;3.50;;;;;;;16.30;67.63;101593.59;5068171;28;20028;-83
2022/05/02 09:23:18;;;;;;;6.28;3.50;;;;;;;16.27;67.93;101569.72;5070114;28;20030;-84
2022/05/02 09:26:06;;;;;;;6.28;3.58;;;;;;;16.36;67.57;101574.50;5080757;28;20038;-84
2022/05/02 09:28:49;;;;;;;5.70;3.58;;;;;;;16.34;69.11;101569.19;5071283;28;20024;-84
2022/05/02 09:31:17;;;;;;;7.95;3.92;;;;;;;16.18;69.22;101533.34;5070442;28;20059;-84
2022/05/02 09:34:03;;;;;;;4.60;3.50;;;;;;;16.31;68.99;101537.41;5074179;28;20050;-83
2022/05/02 09:36:39;;;;;;;6.47;3.78;;;;;;;16.41;69.08;101541.34;5089175;28;20043;-84
2022/05/02 09:39:14;;;;;;;8.23;3.80;;;;;;;16.37;68.96;101542.06;5074151;28;20032;-84
2022/05/02 09:42:10;;;;;;;8.88;4.15;;;;;;;16.40;68.70;101529.91;5067182;28;20032;-84
2022/05/02 09:50:25;;;;;;;7.10;4.20;;;;;;;16.44;68.81;101512.47;5068581;28;20043;-83
2022/05/02 09:53:27;;;;;;;5.88;3.72;;;;;;;16.46;68.99;101509.03;5079003;28;20036;-84
2022/05/02 09:56:40;;;;;;;8.52;3.45;;;;;;;16.40;69.83;101494.72;5083836;28;20496;-85
2022/05/02 09:59:10;;;;;;;6.88;3.60;;;;;;;16.45;69.83;101504.63;5069500;28;20067;-82
2022/05/02 10:01:41;;;;;;;5.30;3.47;;;;;;;16.46;69.41;101501.13;5069859;28;20497;-86
2022/05/02 10:04:12;;;;;;;7.55;3.97;;;;;;;16.46;69.85;101501.13;5069011;28;20040;-85
2022/05/02 10:06:38;;;;;;;5.63;3.55;;;;;;;16.51;69.93;101495.16;5069881;28;20024;-84
2022/05/02 10:09:07;;;;;;;6.10;3.70;;;;;;;16.47;69.88;101492.41;5086078;28;20035;-84
2022/05/02 10:11:57;;;;;;;7.45;3.95;;;;;;;16.46;69.65;101495.88;5069927;28;20500;-85
2022/05/02 10:14:37;;;;;;;5.55;3.70;;;;;;;16.50;69.09;101491.63;5070966;28;20039;-84
2022/05/02 10:17:17;;;;;;;5.30;3.33;;;;;;;16.40;69.46;101473.63;5070627;28;20024;-85
2022/05/02 10:20:04;;;;;;;5.25;3.55;;;;;;;16.46;68.48;101461.59;5069290;28;20029;-85
2022/05/02 10:22:45;;;;;;;5.63;3.30;;;;;;;16.54;69.09;101455.75;5068831;28;20025;-84
2022/05/02 10:25:21;;;;;;;5.15;3.80;;;;;;;16.52;69.46;101457.44;5070534;28;20040;-85
2022/05/02 10:27:47;;;;;;;5.45;3.97;;;;;;;16.57;68.41;101463.78;5069207;28;20627;-84
2022/05/02 10:30:13;;;;;;;5.60;3.55;;;;;;;16.58;70.06;101460.31;5070719;28;20108;-85
2022/05/02 10:32:41;;;;;;;4.63;3.72;;;;;;;16.60;70.03;101466.56;5070576;28;20024;-84
2022/05/02 10:35:13;;;;;;;5.65;3.60;;;;;;;16.52;69.85;101449.53;5070752;28;20039;-85
2022/05/02 10:37:42;;;;;;;4.25;3.50;;;;;;;16.56;69.69;101441.78;5069062;28;20032;-85
2022/05/02 10:40:12;;;;;;;5.40;3.55;;;;;;;16.19;69.53;101387.59;5070075;28;20086;-85
2022/05/02 10:42:51;;;;;;;6.65;4.00;;;;;;;16.49;69.58;101431.84;5070812;28;20024;-85
2022/05/02 10:45:18;;;;;;;5.38;3.60;;;;;;;16.59;69.57;101448.91;5072928;28;20025;-85
2022/05/02 10:47:46;;;;;;;;;;;;;;;16.61;68.97;101437.59;5072883;28;20107;-85
2022/05/02 10:50:18;;;;;;;4.70;3.35;;;;;;;16.55;69.28;101426.81;5072909;28;20366;-85
2022/05/02 10:52:46;;;;;;;7.28;3.85;;;;;;;16.59;69.58;101441.91;5073589;28;20051;-85
2022/05/02 10:55:21;;;;;;;5.75;3.53;;;;;;;16.64;69.22;101450.03;5077697;28;20149;-85
2022/05/02 10:58:04;;;;;;;7.50;3.65;;;;;;;16.67;68.66;101432.56;5072848;28;20036;-85
2022/05/02 11:00:31;;;;;;;5.13;3.75;;;;;;;16.63;68.81;101435.91;5060188;28;20510;-85
2022/05/02 11:03:37;;;;;;;4.93;3.30;;;;;;;16.67;68.51;101450.13;5056108;28;20040;-86
2022/05/02 11:06:14;;;;;;;4.63;3.45;;;;;;;16.59;68.39;101428.72;5062865;28;20075;-86
2022/05/02 11:08:42;;;;;;;5.25;3.33;;;;;;;16.66;68.90;101448.34;5086105;28;20040;-86
2022/05/02 11:11:19;;;;;;;7.72;3.50;;;;;;;16.61;68.65;101440.22;5075138;28;20097;-86
2022/05/02 11:13:47;;;;;;;;;;;;;;;16.68;68.90;101454.59;5076105;28;20043;-86
2022/05/02 11:16:26;;;;;;;5.65;3.53;;;;;;;16.67;69.20;101473.88;5088989;28;20290;-86
2022/05/02 11:22:35;;;;;;;6.82;4.15;;;;;;;16.79;67.65;101470.84;5095577;28;20039;-85
2022/05/02 11:25:08;;;;;;;4.55;3.90;;;;;;;16.71;68.07;101466.97;5080786;28;20509;-85
2022/05/02 11:28:02;;;;;;;7.70;3.85;;;;;;;16.70;68.37;101466.09;5078180;28;20420;-85
2022/05/02 11:30:28;;;;;;;5.70;4.40;;;;;;;16.79;67.98;101466.44;5086347;28;20093;-84
2022/05/02 11:33:12;;;;;;;8.23;4.18;;;;;;;16.74;67.72;101460.06;5076489;28;20024;-85
2022/05/02 11:35:40;;;;;;;5.15;4.00;;;;;;;16.77;68.20;101456.69;5076734;28;20027;-85
2022/05/02 11:38:47;;;;;;;6.35;3.85;;;;;;;16.77;67.85;101465.50;5073222;28;20025;-84
2022/05/02 11:41:21;;;;;;;6.00;3.42;;;;;;;16.60;67.72;101429.63;5067240;28;20042;-85
2022/05/02 11:43:48;;;;;;;5.10;3.92;;;;;;;16.81;68.22;101479.75;5091464;28;20050;-84
2022/05/02 11:46:18;;;;;;;4.95;3.67;;;;;;;16.81;68.04;101479.75;5093216;28;20020;-85
2022/05/02 11:49:02;;;;;;;5.78;3.70;;;;;;;16.78;67.90;101483.09;5079895;28;20017;-85
2022/05/02 11:51:46;;;;;;;4.38;3.63;;;;;;;16.76;68.08;101479.50;5052907;28;20112;-84
2022/05/02 11:54:26;;;;;;;6.13;3.40;;;;;;;16.81;67.99;101485.91;5065778;28;20057;-85
2022/05/02 11:57:14;;;;;;;5.15;3.70;;;;;;;16.78;68.22;101475.19;5072886;28;20575;-84
2022/05/02 12:00:00;;;;;;;4.30;3.70;;;;;;;16.78;67.86;101479.56;5072873;28;20032;-85
2022/05/02 12:02:32;;;;;;;5.10;3.50;;;;;;;16.81;68.19;101490.28;5071454;28;20039;-85
2022/05/02 12:05:05;;;;;;;5.70;3.58;;;;;;;16.81;68.08;101482.38;5073492;28;20029;-85
2022/05/02 12:07:33;;;;;;;7.07;3.95;;;;;;;16.72;67.50;101459.16;5065999;28;20033;-85
2022/05/02 12:10:17;;;;;;;5.07;3.60;;;;;;;16.83;68.15;101489.50;5066007;28;20044;-84
2022/05/02 12:12:51;;;;;;;5.25;3.90;;;;;;;16.78;68.21;101472.53;5067789;28;20025;-84
2022/05/02 12:15:18;;;;;;;6.57;4.03;;;;;;;16.87;67.83;101472.06;5061889;28;20102;-85
2022/05/02 12:17:54;;;;;;;6.20;3.83;;;;;;;16.85;67.89;101477.28;5084653;28;20025;-85
2022/05/02 12:20:26;;;;;;;4.53;3.80;;;;;;;16.88;67.73;101472.13;5082512;28;20131;-85
2022/05/02 12:23:05;;;;;;;6.13;3.63;;;;;;;16.83;67.50;101452.59;5067255;28;20576;-84
2022/05/02 12:25:32;;;;;;;5.10;3.60;;;;;;;16.88;68.05;101463.31;5070499;28;20500;-84